FLIGHT DETAILS
Pilot: ACV287 Karlo Siljevinac Aircraft: PMDG - 747-400F RB211 ENGINES - SILKWAY - 4K-800 Distance: 3624NM
Departure LDZA Arrival KMEM Duration 8.07
Validation Validated Type Regular Tail Number 9A-BBA
ZFW 245025 Block Fuel/Initial FOB 87,217/0 Flight Fuel 86,519
Passengers 0 Cargo 112630 Alternate KCVG
Departure Time 0830 Cruise Speed Flight Level
Flight Type IFR Aircraft Type B744F Weight Unit Kg
Date 2017-12-06 Pilot Comments Network IVAO
Crashed No Validator Comments Flight Rating 100

 ROUTE
ROUTE N0498F320 PODE2F PODET UL25 BERTA UL868 KFT DCT SIMBA Y700 ABABI/N0496F330 UZ39 LALIN/N0497F320 UL604 RUDNO/N0494F340 DCT MAPOX DCT RAVLO UY70 OTBED UL26 PENIL UL70 BAGSO DCT DOGAL/M085F340 NATD N53 00 W030 00/M085F350 NATD CYMON/N0489F360 N146B TOPPS J581 BGR J49 PSB DCT HNN DCT BWG LTOWN6
REMARKS
 FLIGHT FAILURES
Crashed OK Beacon off & Engine Running Fail KIAS Above 250 below 10000 FT OK
Lights OFF below 10000 FT Fail Lights ON above 10000 FT OK Stall OK
Overspeed Fail Flight paused OK Refueling OK
Slew detected Fail Taxi & Taxi lights off Fail Take off & lights off Fail
Landing & lights off OK Landed in not planned airport OK Taxi Speed Fail
Wrong altimeter in Take off Fail Wrong altimeter in Landing OK
 LANDING ANALYSIS
Landing wind 26º/7 kt Landing heading 356
Landing VS: -145.33 ft/min Landing IAS: 139.32 kt
Landing Force G 1 G Landing Bank -0.1
Landing Pitch 3.9 Landing Flaps 33
Navigation Lights ON Landing Lights ON
Beacon Lights OFF Strobe Lights ON
 FLIGHT MAP
 ALTITUDE CHART
 FLIGHT FINANCIAL REPORT
Regular Flight :LDZA - KMEM 4,035.00
TOTAL 4,035.00
 MAIN EVENTS
DATE EVENTIASALTITUDE
2017-12-06 12:12:08 INCORRECT DEPARTURE ICAO00
2017-12-06 12:12:09 SIM ACARS version 1.4.031532177
2017-12-06 12:12:09 BOARDING31532177
2017-12-06 12:12:09 TAXI TO THE RWY 31532177
2017-12-06 12:12:09 TAXING WITH TAXI LIGHTS OFF31532177
2017-12-06 12:12:09 TAKE OFF31532177
2017-12-06 12:12:09 TAKE OFF WITH LIGHTS OFF31532177
2017-12-06 12:12:09 GEAR UP31532177
2017-12-06 12:12:09 STARTING ENGINE 1 31532177
2017-12-06 12:12:09 STARTING ENGINE 2 31532177
2017-12-06 12:12:09 STARTING ENGINE 3 31532177
2017-12-06 12:12:09 STARTING ENGINE 4 31532177
2017-12-06 12:12:09 BEACON LIGHT OFF & ENGINE ON31532177
2017-12-06 12:12:39 CRUISE31532172
2017-12-06 12:30:39 DESCEND31431713
2017-12-06 12:31:19 CRUISE31531687
2017-12-06 12:44:49 CLIMBING30631916
2017-12-06 12:48:39 CRUISE29533673
2017-12-06 12:53:49 DESCEND27933678
2017-12-06 12:54:19 CRUISE27733632
2017-12-06 12:58:31 STOPPING ENGINE 1 28033602
2017-12-06 12:58:31 STOPPING ENGINE 2 28033602
2017-12-06 12:58:31 STOPPING ENGINE 3 28033602
2017-12-06 12:58:31 STOPPING ENGINE 4 28033602
2017-12-06 12:58:32 STARTING ENGINE 1 28033603
2017-12-06 12:58:32 STARTING ENGINE 2 28033603
2017-12-06 12:58:32 STARTING ENGINE 4 28033603
2017-12-06 13:00:27 STARTING ENGINE 3 24333596
2017-12-06 13:02:09 CLIMBING24033797
2017-12-06 13:03:19 CRUISE23934335
2017-12-06 13:03:49 DESCEND25533746
2017-12-06 13:04:39 CRUISE27033609
2017-12-06 14:33:49 DESCEND29333673
2017-12-06 14:34:19 CRUISE29433635
2017-12-06 14:42:02 STOPPING ENGINE 1 23933645
2017-12-06 14:42:02 STOPPING ENGINE 2 23933645
2017-12-06 14:42:02 STOPPING ENGINE 3 23933645
2017-12-06 14:42:02 STOPPING ENGINE 4 23933645
2017-12-06 14:42:02 STARTING ENGINE 1 23933646
2017-12-06 14:42:02 STARTING ENGINE 2 23933646
2017-12-06 14:42:02 STARTING ENGINE 3 23933646
2017-12-06 14:42:02 STARTING ENGINE 4 23933646
2017-12-06 14:45:39 CLIMBING30535075
2017-12-06 14:46:39 CRUISE31535706
2017-12-06 14:46:49 OVERSPEED32035707
2017-12-06 14:47:19 RECOVER FROM OVERSPEED32135706
2017-12-06 16:06:29 CLIMBING28635989
2017-12-06 16:07:29 CRUISE28636019
2017-12-06 17:30:09 CLIMBING28236255
2017-12-06 17:32:29 CRUISE26138297
2017-12-06 17:34:39 CLIMBING26738601
2017-12-06 17:35:29 CRUISE26538850
2017-12-06 18:31:59 DESCEND27238998
2017-12-06 18:32:29 CRUISE26638974
2017-12-06 18:50:26 STOPPING ENGINE 1 26139189
2017-12-06 18:50:26 STOPPING ENGINE 2 26139189
2017-12-06 18:50:26 STOPPING ENGINE 3 26139189
2017-12-06 18:50:26 STOPPING ENGINE 4 26139189
2017-12-06 18:50:26 STARTING ENGINE 1 26139184
2017-12-06 18:50:26 STARTING ENGINE 2 26139184
2017-12-06 18:50:26 STARTING ENGINE 3 26139184
2017-12-06 18:50:26 STARTING ENGINE 4 26139184
2017-12-06 18:54:00 OVERSPEED30539019
2017-12-06 19:04:22 RECOVER FROM OVERSPEED30639069
2017-12-06 19:25:19 CLIMBING27138985
2017-12-06 19:25:49 CRUISE27139067
2017-12-06 20:07:49 DESCEND26738999
2017-12-06 20:23:42 FLAPS EXTENSION 17 % 28110930
2017-12-06 20:23:58 FLAPS EXTENSION 0 % 28010763
2017-12-06 20:24:30 FLAPS EXTENSION 17 % 27010363
2017-12-06 20:24:37 FLAPS EXTENSION 33 % 26410275
2017-12-06 20:25:16 LIGHTS OFF BELOW 10000 ft2449500
2017-12-06 20:27:42 GEAR DOWN2215755
2017-12-06 20:29:37 FLAPS EXTENSION 50 % 2053031
2017-12-06 20:29:39 FLAPS EXTENSION 67 % 2033004
2017-12-06 20:30:29 CRUISE2023008
2017-12-06 20:30:50 FLAPS EXTENSION 83 % 1852968
2017-12-06 20:30:55 FLAPS EXTENSION 100 % 1802976
2017-12-06 20:30:55 FLAPS EXTENSION 83 % 1792977
2017-12-06 20:30:56 FLAPS EXTENSION 100 % 1792977
2017-12-06 20:30:56 FLAPS EXTENSION 83 % 1792977
2017-12-06 20:30:56 FLAPS EXTENSION 100 % 1792977
2017-12-06 20:30:56 FLAPS EXTENSION 83 % 1782977
2017-12-06 20:30:56 FLAPS EXTENSION 100 % 1782978
2017-12-06 20:30:57 FLAPS EXTENSION 83 % 1772978
2017-12-06 20:30:57 FLAPS EXTENSION 100 % 1772978
2017-12-06 20:30:57 FLAPS EXTENSION 100 % 1772978
2017-12-06 20:30:58 FLAPS EXTENSION 83 % 1762978
2017-12-06 20:30:58 FLAPS EXTENSION 100 % 1752978
2017-12-06 20:30:58 FLAPS EXTENSION 100 % 1752978
2017-12-06 20:30:58 FLAPS EXTENSION 83 % 1752978
2017-12-06 20:30:58 FLAPS EXTENSION 100 % 1742978
2017-12-06 20:30:58 FLAPS EXTENSION 100 % 1742978
2017-12-06 20:30:59 FLAPS EXTENSION 83 % 1742978
2017-12-06 20:30:59 FLAPS EXTENSION 100 % 1732978
2017-12-06 20:30:59 FLAPS EXTENSION 100 % 1732978
2017-12-06 20:30:59 FLAPS EXTENSION 83 % 1732977
2017-12-06 20:30:59 FLAPS EXTENSION 100 % 1722977
2017-12-06 20:31:00 FLAPS EXTENSION 83 % 1722977
2017-12-06 20:31:00 FLAPS EXTENSION 100 % 1712976
2017-12-06 20:31:00 FLAPS EXTENSION 83 % 1712976
2017-12-06 20:31:00 FLAPS EXTENSION 83 % 1712976
2017-12-06 20:31:01 FLAPS EXTENSION 83 % 1702976
2017-12-06 20:31:01 FLAPS EXTENSION 100 % 1702976
2017-12-06 20:33:29 DESCEND1432751
2017-12-06 20:36:46 LANDING139354
2017-12-06 20:37:08 TAXI TO THE GATE19353
2017-12-06 20:37:29 TAXI SPEED ABOVE 25 KTS26353
2017-12-06 20:37:39 FLAPS EXTENSION 33 % 43353
2017-12-06 20:37:45 STOPPING ENGINE 2 52353
2017-12-06 20:37:45 STOPPING ENGINE 3 52353
2017-12-06 20:37:45 STARTING ENGINE 2 52353
2017-12-06 20:37:45 STARTING ENGINE 3 52353
2017-12-06 20:37:46 STOPPING ENGINE 2 53353
2017-12-06 20:37:46 STOPPING ENGINE 3 53353
2017-12-06 20:37:46 STARTING ENGINE 2 53353
2017-12-06 20:37:46 STARTING ENGINE 3 53353
2017-12-06 20:37:46 STOPPING ENGINE 2 53353
2017-12-06 20:37:46 STOPPING ENGINE 3 53353
2017-12-06 20:37:47 STARTING ENGINE 2 53353
2017-12-06 20:37:47 STARTING ENGINE 3 53353
2017-12-06 20:37:47 STOPPING ENGINE 2 53353
2017-12-06 20:37:47 STOPPING ENGINE 3 53353
2017-12-06 20:37:47 STARTING ENGINE 2 53353
2017-12-06 20:37:47 STARTING ENGINE 3 53353
2017-12-06 20:37:48 STOPPING ENGINE 2 54353
2017-12-06 20:37:48 STOPPING ENGINE 3 54353
2017-12-06 20:37:48 STARTING ENGINE 2 54353
2017-12-06 20:37:48 STARTING ENGINE 3 54353
2017-12-06 20:37:48 STOPPING ENGINE 2 54353
2017-12-06 20:37:48 STOPPING ENGINE 3 54353
2017-12-06 20:37:50 STARTING ENGINE 2 54353
2017-12-06 20:37:50 STARTING ENGINE 3 54353
2017-12-06 20:37:50 STOPPING ENGINE 2 54353
2017-12-06 20:37:50 STOPPING ENGINE 3 54353
2017-12-06 20:37:52 STARTING ENGINE 2 54353
2017-12-06 20:37:52 STARTING ENGINE 3 54353
2017-12-06 20:37:56 FLAPS EXTENSION 17 % 55353
2017-12-06 20:38:42 FLAPS EXTENSION 0 % 19353
2017-12-06 20:42:20 SLEW MODE ACTIVATED2353
 ACARS DATA
DATE IASGSALTITUDEFUEL CONSUMED OATFLIGHT STATUS
2017-12-06 12:13:0931546532166203-40CRUISE
2017-12-06 12:14:0831446532156404-40CRUISE
2017-12-06 12:15:0831546532151607-40CRUISE
2017-12-06 12:16:0831446432146810-40CRUISE
2017-12-06 12:17:08314464321371011-40CRUISE
2017-12-06 12:18:08314464321301213-40CRUISE
2017-12-06 12:19:08308465321181417-40CRUISE
2017-12-06 12:20:08309479321121654-40CRUISE
2017-12-06 12:21:08306496320151891-40CRUISE
2017-12-06 12:22:08311494320052090-40CRUISE
2017-12-06 12:23:08313485319962266-40CRUISE
2017-12-06 12:24:08314477319922446-40CRUISE
2017-12-06 12:25:08313471319902631-40CRUISE
2017-12-06 12:26:08313469319892831-40CRUISE
2017-12-06 12:27:08312470319883035-40CRUISE
2017-12-06 12:28:08312477319883251-40CRUISE
2017-12-06 12:29:08311484319903470-40CRUISE
2017-12-06 12:30:08313488319903682-40CRUISE
2017-12-06 12:31:08314491316703875-40DESCEND
2017-12-06 12:32:08312493319954102-40CRUISE
2017-12-06 12:33:08313488319984289-48CRUISE
2017-12-06 12:34:08308477319004454-36CRUISE
2017-12-06 12:35:08310479318844657-36CRUISE
2017-12-06 12:36:08311479318744854-36CRUISE
2017-12-06 12:37:08311480318715056-36CRUISE
2017-12-06 12:38:08311481318705257-36CRUISE
2017-12-06 12:39:08310481318695455-36CRUISE
2017-12-06 12:40:08310481318695652-36CRUISE
2017-12-06 12:41:08307478316775829-36CRUISE
2017-12-06 12:42:08307478316666025-36CRUISE
2017-12-06 12:43:08307478316566223-36CRUISE
2017-12-06 12:44:08307478316466417-36CRUISE
2017-12-06 12:45:08305477321146638-37CLIMBING
2017-12-06 12:46:08302476326206859-38CLIMBING
2017-12-06 12:47:08298474331227078-39CLIMBING
2017-12-06 12:48:08297471336077290-40CLIMBING
2017-12-06 12:49:08295469336687480-41CRUISE
2017-12-06 12:50:08295469336667671-41CRUISE
2017-12-06 12:51:08295468336667859-41CRUISE
2017-12-06 12:52:08295469336678054-41CRUISE
2017-12-06 12:53:08290471339768274-52CRUISE
2017-12-06 12:54:08277474336378462-41DESCEND
2017-12-06 12:55:08259475336178668-41CRUISE
2017-12-06 12:56:08264476336098872-41CRUISE
2017-12-06 12:57:08266478336009074-41CRUISE
2017-12-06 12:58:08279479336019164-41CRUISE
2017-12-06 12:59:08253461335909361-41CRUISE
2017-12-06 13:00:08249433335969510-41CRUISE
2017-12-06 13:01:08239420335969686-41CRUISE
2017-12-06 13:02:08240421337929910-41CRUISE
2017-12-06 13:03:082374183433710150-42CLIMBING
2017-12-06 13:04:082624583361610398-41DESCEND
2017-12-06 13:05:082764783360510650-41CRUISE
2017-12-06 13:06:082835023360310909-41CRUISE
2017-12-06 13:07:083045283360411164-41CRUISE
2017-12-06 13:08:082925013360211290-41CRUISE
2017-12-06 13:09:083014803366211447-41CRUISE
2017-12-06 13:10:082964733368611622-41CRUISE
2017-12-06 13:11:082954723369711810-41CRUISE
2017-12-06 13:12:082954723370411999-41CRUISE
2017-12-06 13:13:082964733370412188-41CRUISE
2017-12-06 13:14:082964733370312379-41CRUISE
2017-12-06 13:15:082964733370312568-41CRUISE
2017-12-06 13:16:082954733370112759-41CRUISE
2017-12-06 13:17:082954743369912946-41CRUISE
2017-12-06 13:18:082974723370413133-41CRUISE
2017-12-06 13:19:082964723372913321-41CRUISE
2017-12-06 13:20:082964723373913513-41CRUISE
2017-12-06 13:21:082964713374813700-41CRUISE
2017-12-06 13:22:082974713374913893-41CRUISE
2017-12-06 13:23:082934793383914105-41CRUISE
2017-12-06 13:24:082984903386114322-41CRUISE
2017-12-06 13:25:082904913386914515-41CRUISE
2017-12-06 13:26:082974893388314702-41CRUISE
2017-12-06 13:27:082964653389014843-41CRUISE
2017-12-06 13:28:082984693389015045-41CRUISE
2017-12-06 13:29:082984683388415236-41CRUISE
2017-12-06 13:30:082984683387915427-41CRUISE
2017-12-06 13:31:082984683387515619-41CRUISE
2017-12-06 13:32:082984683387015811-41CRUISE
2017-12-06 13:33:082974693386615998-41CRUISE
2017-12-06 13:34:082974693386316187-41CRUISE
2017-12-06 13:35:082974683386016377-41CRUISE
2017-12-06 13:36:082974683385616566-40CRUISE
2017-12-06 13:37:082974683384516754-40CRUISE
2017-12-06 13:38:082894693383816942-40CRUISE
2017-12-06 13:39:082714743383517150-40CRUISE
2017-12-06 13:40:082744783383717360-40CRUISE
2017-12-06 13:41:082784843384017571-40CRUISE
2017-12-06 13:42:082834923384117784-40CRUISE
2017-12-06 13:43:082885013384317999-40CRUISE
2017-12-06 13:44:082934913384118166-40CRUISE
2017-12-06 13:45:082974913384218352-40CRUISE
2017-12-06 13:46:082964903384418539-40CRUISE
2017-12-06 13:47:082974913384518733-40CRUISE
2017-12-06 13:48:082764953384318936-40CRUISE
2017-12-06 13:49:082845053384719149-40CRUISE
2017-12-06 13:50:082985153384219362-40CRUISE
2017-12-06 13:51:082975143383219548-40CRUISE
2017-12-06 13:52:082975143383019734-40CRUISE
2017-12-06 13:53:082975143382919926-40CRUISE
2017-12-06 13:54:082975143382820111-40CRUISE
2017-12-06 13:55:082975143382820300-40CRUISE
2017-12-06 13:56:083185093394320483-51CRUISE
2017-12-06 13:57:083014893398020633-52CRUISE
2017-12-06 13:58:082974873399020819-52CRUISE
2017-12-06 13:59:082994913399721016-52CRUISE
2017-12-06 14:00:083004973399821218-52CRUISE
2017-12-06 14:01:082994973399921404-52CRUISE
2017-12-06 14:02:082994973399921589-52CRUISE
2017-12-06 14:03:083054943386621765-40CRUISE
2017-12-06 14:04:082944353385421845-40CRUISE
2017-12-06 14:05:082964123384621976-40CRUISE
2017-12-06 14:06:082973873384422100-40CRUISE
2017-12-06 14:07:082933633384322228-40CRUISE
2017-12-06 14:08:082853763384222442-40CRUISE
2017-12-06 14:09:082703833384022653-40CRUISE
2017-12-06 14:10:082573893384022862-40CRUISE
2017-12-06 14:11:082603963384223070-40CRUISE
2017-12-06 14:12:082654023384323278-40CRUISE
2017-12-06 14:13:082694083384323488-40CRUISE
2017-12-06 14:14:082734143384323697-40CRUISE
2017-12-06 14:15:082794233384623911-40CRUISE
2017-12-06 14:16:082874353384624125-40CRUISE
2017-12-06 14:17:082974483384624341-40CRUISE
2017-12-06 14:18:082974493384224525-40CRUISE
2017-12-06 14:19:082984483388324707-41CRUISE
2017-12-06 14:20:082984473389424893-41CRUISE
2017-12-06 14:21:082974473390725076-41CRUISE
2017-12-06 14:22:082984473390425259-41CRUISE
2017-12-06 14:23:082974473390525441-41CRUISE
2017-12-06 14:24:082984473390425623-41CRUISE
2017-12-06 14:25:082984473390425807-41CRUISE
2017-12-06 14:26:082984473390325989-41CRUISE
2017-12-06 14:27:082974463390226172-41CRUISE
2017-12-06 14:28:082974473390026359-41CRUISE
2017-12-06 14:29:082984473389926544-41CRUISE
2017-12-06 14:30:082984473389726730-41CRUISE
2017-12-06 14:31:082984473389526914-41CRUISE
2017-12-06 14:32:082984473389327099-41CRUISE
2017-12-06 14:33:082974473389227281-41CRUISE
2017-12-06 14:34:082934483364327451-40DESCEND
2017-12-06 14:35:082934483362427632-40CRUISE
2017-12-06 14:36:082934483361427815-40CRUISE
2017-12-06 14:37:082894343360927965-40CRUISE
2017-12-06 14:38:082744423361328173-40CRUISE
2017-12-06 14:39:082934523362128381-40CRUISE
2017-12-06 14:40:082934263362528501-40CRUISE
2017-12-06 14:41:082384323363428706-55CRUISE
2017-12-06 14:42:082354273364728855-56CRUISE
2017-12-06 14:43:082454383366129069-59CRUISE
2017-12-06 14:44:082564523368029293-59CRUISE
2017-12-06 14:45:083304763370929537-59CRUISE
2017-12-06 14:46:082994523569629771-57CLIMBING
2017-12-06 14:47:083244713570730006-57CRUISE
2017-12-06 14:48:082774033570130081-57CRUISE
2017-12-06 14:49:082744093571630275-45CRUISE
2017-12-06 14:50:082784143577830474-45CRUISE
2017-12-06 14:51:082834243579030675-45CRUISE
2017-12-06 14:52:082834233579130855-45CRUISE
2017-12-06 14:53:082834233579231031-45CRUISE
2017-12-06 14:54:082834233579231209-45CRUISE
2017-12-06 14:55:082834203579231385-45CRUISE
2017-12-06 14:56:082834203579131558-45CRUISE
2017-12-06 14:57:082834203579131737-45CRUISE
2017-12-06 14:58:082834203579131915-45CRUISE
2017-12-06 14:59:082834203579132094-45CRUISE
2017-12-06 15:00:082834203579032270-45CRUISE
2017-12-06 15:01:082834203579132448-45CRUISE
2017-12-06 15:02:082844213579232626-45CRUISE
2017-12-06 15:03:082844203579332801-45CRUISE
2017-12-06 15:04:082834203579332976-46CRUISE
2017-12-06 15:05:082834213579533155-45CRUISE
2017-12-06 15:06:082834213579733331-45CRUISE
2017-12-06 15:07:082834213579833512-45CRUISE
2017-12-06 15:08:082844213579833690-45CRUISE
2017-12-06 15:09:082834213579833866-45CRUISE
2017-12-06 15:10:082844223579934042-45CRUISE
2017-12-06 15:11:082844223579834218-45CRUISE
2017-12-06 15:12:082834213579834393-45CRUISE
2017-12-06 15:13:082834213579734570-45CRUISE
2017-12-06 15:14:082844223579634741-45CRUISE
2017-12-06 15:15:082834213579634918-45CRUISE
2017-12-06 15:16:092844223580035092-45CRUISE
2017-12-06 15:17:082844223579935268-45CRUISE
2017-12-06 15:18:082844223580035442-45CRUISE
2017-12-06 15:19:082834213580035617-45CRUISE
2017-12-06 15:20:082834213580135793-45CRUISE
2017-12-06 15:21:082844223580135968-45CRUISE
2017-12-06 15:22:082754083592436116-45CRUISE
2017-12-06 15:23:082834203590536317-45CRUISE
2017-12-06 15:24:082854223589836492-45CRUISE
2017-12-06 15:25:082854223588936667-45CRUISE
2017-12-06 15:26:082854233588936844-45CRUISE
2017-12-06 15:27:082854223588837020-45CRUISE
2017-12-06 15:28:082854223588737192-45CRUISE
2017-12-06 15:29:082844213588737360-45CRUISE
2017-12-06 15:30:082854213588937536-45CRUISE
2017-12-06 15:31:082854223589237712-45CRUISE
2017-12-06 15:32:082854213589037888-46CRUISE
2017-12-06 15:33:082854213589138062-46CRUISE
2017-12-06 15:34:082854213589238235-46CRUISE
2017-12-06 15:35:082854203589338412-46CRUISE
2017-12-06 15:36:082854203589438587-46CRUISE
2017-12-06 15:37:082854203589638762-47CRUISE
2017-12-06 15:38:082834203589738936-45CRUISE
2017-12-06 15:39:082844213589139110-45CRUISE
2017-12-06 15:40:082844223589139285-45CRUISE
2017-12-06 15:41:082854223589139459-45CRUISE
2017-12-06 15:42:082844223589139630-45CRUISE
2017-12-06 15:43:082854223589139806-45CRUISE
2017-12-06 15:44:082854223589239983-45CRUISE
2017-12-06 15:45:082854223589240151-45CRUISE
2017-12-06 15:46:082854253589240333-45CRUISE
2017-12-06 15:47:082854253589440509-46CRUISE
2017-12-06 15:48:082854243589440685-46CRUISE
2017-12-06 15:49:082854263589640862-46CRUISE
2017-12-06 15:50:082854263589741036-46CRUISE
2017-12-06 15:51:082854263589841204-46CRUISE
2017-12-06 15:52:082854253590141377-47CRUISE
2017-12-06 15:53:082854253590341543-48CRUISE
2017-12-06 15:54:082854233591341714-49CRUISE
2017-12-06 15:55:082864223592341889-50CRUISE
2017-12-06 15:56:082864233592742064-50CRUISE
2017-12-06 15:57:082854223593242237-49CRUISE
2017-12-06 15:58:082844253593042417-47CRUISE
2017-12-06 15:59:082844263591942586-46CRUISE
2017-12-06 16:00:082854303591042765-44CRUISE
2017-12-06 16:01:082844293590642932-44CRUISE
2017-12-06 16:02:082844303590543106-44CRUISE
2017-12-06 16:03:082864303590643277-45CRUISE
2017-12-06 16:04:082854283591543443-47CRUISE
2017-12-06 16:05:082864263592643613-48CRUISE
2017-12-06 16:06:082854233594643780-50CRUISE
2017-12-06 16:07:082904293603443971-51CLIMBING
2017-12-06 16:08:082864213601244119-53CRUISE
2017-12-06 16:09:082864183601044288-55CRUISE
2017-12-06 16:10:082874163602944459-57CRUISE
2017-12-06 16:11:082874163603944634-57CRUISE
2017-12-06 16:12:082834163604244805-53CRUISE
2017-12-06 16:13:082854203600044986-52CRUISE
2017-12-06 16:14:082874263599145170-49CRUISE
2017-12-06 16:15:082874243600145338-52CRUISE
2017-12-06 16:16:082864193600745497-55CRUISE
2017-12-06 16:17:082864193601845669-55CRUISE
2017-12-06 16:18:082874233631745870-45CRUISE
2017-12-06 16:19:082904263609846039-47CRUISE
2017-12-06 16:20:082864183604346188-56CRUISE
2017-12-06 16:21:082864203603346362-56CRUISE
2017-12-06 16:22:082874203603846532-56CRUISE
2017-12-06 16:23:082864193603246703-57CRUISE
2017-12-06 16:24:082864173602446870-57CRUISE
2017-12-06 16:25:082884213603947052-56CRUISE
2017-12-06 16:26:082884223605347225-54CRUISE
2017-12-06 16:27:082884233608447399-52CRUISE
2017-12-06 16:28:082884233611547572-52CRUISE
2017-12-06 16:29:082894243616247742-51CRUISE
2017-12-06 16:30:082914293621347930-48CRUISE
2017-12-06 16:31:082894223604248081-57CRUISE
2017-12-06 16:32:082874193601448240-57CRUISE
2017-12-06 16:33:082894273625648440-48CRUISE
2017-12-06 16:34:082884263625248604-48CRUISE
2017-12-06 16:35:082894283624748782-48CRUISE
2017-12-06 16:36:082904313625048952-45CRUISE
2017-12-06 16:37:082884303619949115-46CRUISE
2017-12-06 16:38:082874293618549280-46CRUISE
2017-12-06 16:39:082894313617649452-45CRUISE
2017-12-06 16:40:082894313618749623-45CRUISE
2017-12-06 16:41:082894313618849793-45CRUISE
2017-12-06 16:42:082854223601849937-53CRUISE
2017-12-06 16:43:082854223600250107-53CRUISE
2017-12-06 16:44:082854223599050275-53CRUISE
2017-12-06 16:45:082854223597950440-53CRUISE
2017-12-06 16:46:082854223597850612-53CRUISE
2017-12-06 16:47:082854213597950782-54CRUISE
2017-12-06 16:48:082884323606150977-50CRUISE
2017-12-06 16:49:082854353599551152-46CRUISE
2017-12-06 16:50:082864353597551322-46CRUISE
2017-12-06 16:51:082864333596751488-47CRUISE
2017-12-06 16:52:082864353597251663-45CRUISE
2017-12-06 16:53:082844293596251817-49CRUISE
2017-12-06 16:54:082864403594452009-47CRUISE
2017-12-06 16:55:082864333593652160-52CRUISE
2017-12-06 16:56:082854293594752320-54CRUISE
2017-12-06 16:57:082854293595852486-54CRUISE
2017-12-06 16:58:082864283596652654-56CRUISE
2017-12-06 16:59:082854263597052822-57CRUISE
2017-12-06 17:00:082854253597152988-58CRUISE
2017-12-06 17:01:082854263597353157-58CRUISE
2017-12-06 17:02:082854263597553324-57CRUISE
2017-12-06 17:03:082854393603553521-45CRUISE
2017-12-06 17:04:082834243599453655-57CRUISE
2017-12-06 17:05:082854293598453830-55CRUISE
2017-12-06 17:06:082854293597954002-55CRUISE
2017-12-06 17:07:082844343594154175-50CRUISE
2017-12-06 17:08:082864373592454349-45CRUISE
2017-12-06 17:09:082854353589754514-45CRUISE
2017-12-06 17:10:082844333588454677-47CRUISE
2017-12-06 17:11:082834343587554850-46CRUISE
2017-12-06 17:12:082824313585355007-47CRUISE
2017-12-06 17:13:082824263584255162-51CRUISE
2017-12-06 17:14:082834303583655334-49CRUISE
2017-12-06 17:15:082824253583855476-51CRUISE
2017-12-06 17:16:082824243584555640-53CRUISE
2017-12-06 17:17:082814283586155816-55CRUISE
2017-12-06 17:18:082824333586755991-52CRUISE
2017-12-06 17:19:082824263585756142-52CRUISE
2017-12-06 17:20:082824333586256322-48CRUISE
2017-12-06 17:21:082824273586056476-52CRUISE
2017-12-06 17:22:082834283586056646-51CRUISE
2017-12-06 17:23:082834303586656813-50CRUISE
2017-12-06 17:24:082844273587156972-53CRUISE
2017-12-06 17:25:082834363582657157-46CRUISE
2017-12-06 17:26:082824223584657293-58CRUISE
2017-12-06 17:27:082834243585257461-58CRUISE
2017-12-06 17:28:082834243585757623-58CRUISE
2017-12-06 17:29:082844253586257790-58CRUISE
2017-12-06 17:30:082824253624857971-58CRUISE
2017-12-06 17:31:082724133759158176-58CLIMBING
2017-12-06 17:32:082704163821458370-57CLIMBING
2017-12-06 17:33:082634213833858550-48CRUISE
2017-12-06 17:34:082674293840558730-48CRUISE
2017-12-06 17:35:082684243884658903-49CLIMBING
2017-12-06 17:36:082664213885759053-49CRUISE
2017-12-06 17:37:082644083886859188-55CRUISE
2017-12-06 17:38:082664123888659357-53CRUISE
2017-12-06 17:39:082664143890159520-53CRUISE
2017-12-06 17:40:082664143891659671-53CRUISE
2017-12-06 17:41:082674143891759830-53CRUISE
2017-12-06 17:42:082644153892259992-55CRUISE
2017-12-06 17:43:082674183892760155-55CRUISE
2017-12-06 17:44:082674173893460316-56CRUISE
2017-12-06 17:45:082674163893860473-57CRUISE
2017-12-06 17:46:082664143892960623-58CRUISE
2017-12-06 17:47:082674153892960788-58CRUISE
2017-12-06 17:48:082664133892260948-58CRUISE
2017-12-06 17:49:082674163892361114-57CRUISE
2017-12-06 17:50:082664163892261269-56CRUISE
2017-12-06 17:51:082674213892161438-55CRUISE
2017-12-06 17:52:082664203891961595-55CRUISE
2017-12-06 17:53:082664193892161752-56CRUISE
2017-12-06 17:54:082654213892261913-54CRUISE
2017-12-06 17:55:082674213891062068-51CRUISE
2017-12-06 17:56:082674243890162228-49CRUISE
2017-12-06 17:57:082664213889862382-49CRUISE
2017-12-06 17:58:082674233889862545-49CRUISE
2017-12-06 17:59:082674253890162710-48CRUISE
2017-12-06 18:00:082674133893662847-56CRUISE
2017-12-06 18:01:082684183896563017-57CRUISE
2017-12-06 18:02:082684173898163168-58CRUISE
2017-12-06 18:03:082684253891263336-51CRUISE
2017-12-06 18:04:082674293891163506-48CRUISE
2017-12-06 18:05:082664243891463654-50CRUISE
2017-12-06 18:06:082664263890963814-49CRUISE
2017-12-06 18:07:082664283890363976-48CRUISE
2017-12-06 18:08:082664263890364123-49CRUISE
2017-12-06 18:09:082644283891764285-49CRUISE
2017-12-06 18:10:082674313891864444-49CRUISE
2017-12-06 18:11:082674303892364600-50CRUISE
2017-12-06 18:12:082674233895064744-54CRUISE
2017-12-06 18:13:082694243895464905-55CRUISE
2017-12-06 18:14:082694223905865063-57CRUISE
2017-12-06 18:15:082684213901865218-56CRUISE
2017-12-06 18:16:082684223900965374-56CRUISE
2017-12-06 18:17:082674213900065524-56CRUISE
2017-12-06 18:18:082654303893265700-49CRUISE
2017-12-06 18:19:082664313892865854-49CRUISE
2017-12-06 18:20:082674313891666010-49CRUISE
2017-12-06 18:21:082664313893866163-49CRUISE
2017-12-06 18:22:082684343897366325-48CRUISE
2017-12-06 18:23:082684353908666491-49CRUISE
2017-12-06 18:24:082664223909866625-57CRUISE
2017-12-06 18:25:082624353910866811-57CRUISE
2017-12-06 18:26:082724503912166998-57CRUISE
2017-12-06 18:27:082714483913667152-57CRUISE
2017-12-06 18:28:082714483914867310-57CRUISE
2017-12-06 18:29:082714483915667467-57CRUISE
2017-12-06 18:30:082714493916867626-57CRUISE
2017-12-06 18:31:082704493916667787-56CRUISE
2017-12-06 18:32:082694423898767918-52DESCEND
2017-12-06 18:33:082674333897268055-51CRUISE
2017-12-06 18:34:082684383896868221-51CRUISE
2017-12-06 18:35:082684383902868380-51CRUISE
2017-12-06 18:36:082714333911068530-55CRUISE
2017-12-06 18:37:082714313913568683-56CRUISE
2017-12-06 18:38:082714333914068842-55CRUISE
2017-12-06 18:39:082704333913068997-54CRUISE
2017-12-06 18:40:082704343912069153-55CRUISE
2017-12-06 18:41:082704373910969318-53CRUISE
2017-12-06 18:42:082714423910969484-55CRUISE
2017-12-06 18:43:082714423911669638-55CRUISE
2017-12-06 18:44:082714423913069795-55CRUISE
2017-12-06 18:45:082704403914569949-55CRUISE
2017-12-06 18:46:082704403915370101-55CRUISE
2017-12-06 18:47:082704413912770263-55CRUISE
2017-12-06 18:48:082704363909670409-54CRUISE
2017-12-06 18:49:082674363918670568-55CRUISE
2017-12-06 18:50:082614423918870677-55CRUISE
2017-12-06 18:51:082604403917970910-55CRUISE
2017-12-06 18:52:082704573917371100-55CRUISE
2017-12-06 18:53:082834743917271292-55CRUISE
2017-12-06 18:54:083064973901271493-53CRUISE
2017-12-06 18:55:083175123902371696-53CRUISE
2017-12-06 18:56:083275233906671900-54CRUISE
2017-12-06 18:57:083315283919472105-54CRUISE
2017-12-06 18:58:083385363920672309-55CRUISE
2017-12-06 18:59:083395403922072509-54CRUISE
2017-12-06 19:00:083395423920772718-54CRUISE
2017-12-06 19:01:083395443916672920-53CRUISE
2017-12-06 19:02:083405473914173125-53CRUISE
2017-12-06 19:03:083385483910273327-52CRUISE
2017-12-06 19:04:083185173907073482-52CRUISE
2017-12-06 19:05:082644363907573543-54CRUISE
2017-12-06 19:06:082684453905173712-53CRUISE
2017-12-06 19:07:082694443900673857-53CRUISE
2017-12-06 19:08:082684453903174008-53CRUISE
2017-12-06 19:09:082704443906774164-54CRUISE
2017-12-06 19:10:082694413909174315-54CRUISE
2017-12-06 19:11:082704423909874465-54CRUISE
2017-12-06 19:12:082704423911174622-54CRUISE
2017-12-06 19:13:082664473910974791-53CRUISE
2017-12-06 19:14:082714493916474955-54CRUISE
2017-12-06 19:15:082704503917675113-54CRUISE
2017-12-06 19:16:082704503918475256-54CRUISE
2017-12-06 19:17:082704493918975397-54CRUISE
2017-12-06 19:18:082694513916075551-53CRUISE
2017-12-06 19:19:082684513911175702-53CRUISE
2017-12-06 19:20:082674523906075857-52CRUISE
2017-12-06 19:21:082684473901176002-52CRUISE
2017-12-06 19:22:082654433898076151-51CRUISE
2017-12-06 19:23:082654403896576297-52CRUISE
2017-12-06 19:24:082664423896476453-52CRUISE
2017-12-06 19:25:082684423896276601-52CRUISE
2017-12-06 19:26:082704413908376756-53CRUISE
2017-12-06 19:27:082704413913876912-53CRUISE
2017-12-06 19:28:082694403915277044-53CRUISE
2017-12-06 19:29:082684393912777180-53CRUISE
2017-12-06 19:30:082694383916377323-53CRUISE
2017-12-06 19:31:082704393918377478-53CRUISE
2017-12-06 19:32:082654493919677650-53CRUISE
2017-12-06 19:33:082714573920977817-53CRUISE
2017-12-06 19:34:082714583921977971-53CRUISE
2017-12-06 19:35:082744553923678118-53CRUISE
2017-12-06 19:36:082714383924078234-53CRUISE
2017-12-06 19:37:082714383924178389-53CRUISE
2017-12-06 19:38:082714383923978542-53CRUISE
2017-12-06 19:39:082714383923778696-53CRUISE
2017-12-06 19:40:082714383923578850-53CRUISE
2017-12-06 19:41:082714383923479002-54CRUISE
2017-12-06 19:42:082714383922979156-53CRUISE
2017-12-06 19:43:082704393920079308-53CRUISE
2017-12-06 19:44:082664353908879449-52CRUISE
2017-12-06 19:45:082664363900579596-52CRUISE
2017-12-06 19:46:082664373897479744-51CRUISE
2017-12-06 19:47:082674353896579887-52CRUISE
2017-12-06 19:48:082694353905080041-52CRUISE
2017-12-06 19:49:082704353913180197-53CRUISE
2017-12-06 19:50:082724333919180355-53CRUISE
2017-12-06 19:51:082714333921780505-53CRUISE
2017-12-06 19:52:082714303922880654-55CRUISE
2017-12-06 19:53:082714303923880808-56CRUISE
2017-12-06 19:54:082714313924980961-56CRUISE
2017-12-06 19:55:082724313924981112-55CRUISE
2017-12-06 19:56:082714303923881264-55CRUISE
2017-12-06 19:57:082704313920081411-54CRUISE
2017-12-06 19:58:082724323919381563-54CRUISE
2017-12-06 19:59:082724323924981717-54CRUISE
2017-12-06 20:00:082714313925981870-54CRUISE
2017-12-06 20:01:082724323927182023-54CRUISE
2017-12-06 20:02:082724313927582176-54CRUISE
2017-12-06 20:03:082724323926882330-53CRUISE
2017-12-06 20:04:082714323925882475-53CRUISE
2017-12-06 20:05:082714333925182628-53CRUISE
2017-12-06 20:06:082724333926082778-53CRUISE
2017-12-06 20:07:082734383903582931-56CRUISE
2017-12-06 20:08:082764253828183032-56DESCEND
2017-12-06 20:09:082773983608483093-56DESCEND
2017-12-06 20:10:082713733398183154-52DESCEND
2017-12-06 20:11:082844003165183263-33DESCEND
2017-12-06 20:12:082773862933683325-28DESCEND
2017-12-06 20:13:082743682725983386-23DESCEND
2017-12-06 20:14:082763612536683455-30DESCEND
2017-12-06 20:15:082833582343883521-29DESCEND
2017-12-06 20:16:082853512130983583-26DESCEND
2017-12-06 20:17:082853421920383644-21DESCEND
2017-12-06 20:18:082843381708883705-4DESCEND
2017-12-06 20:19:0827932415250837660DESCEND
2017-12-06 20:20:0828233714144838581DESCEND
2017-12-06 20:21:0828032713089839202DESCEND
2017-12-06 20:22:0828032312101839814DESCEND
2017-12-06 20:23:0828031911302840555DESCEND
2017-12-06 20:24:0828031410628841365DESCEND
2017-12-06 20:25:08248278971484197-4DESCEND
2017-12-06 20:26:08243269798684262-1DESCEND
2017-12-06 20:27:082202426544843260DESCEND
2017-12-06 20:28:08223239515784424-2DESCEND
2017-12-06 20:29:08233245378084641-5DESCEND
2017-12-06 20:30:08200206298884855-2DESCEND
2017-12-06 20:31:08163161298285072-5CRUISE
2017-12-06 20:32:08143136295685356-5CRUISE
2017-12-06 20:33:0814414329568571320CRUISE
2017-12-06 20:34:0814314722938596221DESCEND
2017-12-06 20:35:0814214514968617121DESCEND
2017-12-06 20:36:081431427888640116DESCEND
2017-12-06 20:37:081583538655012TAXI TO THE GATE
2017-12-06 20:38:0851483538669412TAXI TO THE GATE
2017-12-06 20:39:0814133538674812TAXI TO THE GATE
2017-12-06 20:40:0815123538688912TAXI TO THE GATE
2017-12-06 20:41:08843538705512TAXI TO THE GATE
2017-12-06 20:42:08203538719712TAXI TO THE GATE